Gordo, AL (35466)

9:34 PM CST on March 04, 2015 (GMT -0600)
Bethany | Change Station
CLOSE
Current Station
Personal Weather Station
Location: Buhl, AL
Elevation: 367 ft
Nearby Weather Stations
Active Advisory: Freezing Rain Advisory

Elev 367 ft 33.32 °N, 87.74 °W | Updated 4 minutes ago

Overcast
Overcast
52.9 °F
Feels Like 52.9 °F
N
4.5
Wind Variable Wind from NE
Gusts 9.8 mph

Today
High -- | Low -- °F
--% Chance of Precip.
Yesterday
High -- | Low -- °F
Precip. -- in
6:16 AM 5:50 PM
Full, 100% visible
Pressure 29.92 in
Visibility 7.0 miles
Clouds Mostly Cloudy 1600 ft
Overcast 2200 ft
Dew Point 52 °F
Humidity 98%
Rainfall in
Snow Depth Not available.
UV 0 out of 12
Pollen 8.00 out of 12
Air Quality Not available.
Flu Activity Not available.
SPECI KTCL 050301Z AUTO 34008KT 7SM -RA BKN016 OVC022 14/13 A2992 RMK AO2 P0001 T01390128

More Conditions Fewer Conditions

Pressure 29.92 in
Visibility 7.0 miles
Clouds Mostly Cloudy 1600 ft
Overcast 2200 ft
Dew Point 52 °F
Humidity 98%
Rainfall in
Snow Depth Not available.
UV 0 out of 12
Pollen 8.00 out of 12
Air Quality Not available.
Flu Activity Not available.
SPECI KTCL 050301Z AUTO 34008KT 7SM -RA BKN016 OVC022 14/13 A2992 RMK AO2 P0001 T01390128

More Conditions Fewer Conditions

10-Day Weather Forecast

Almanac

Astronomy

Mar. 04, 2015 Rise Set
Actual Time
Civil Twilight
Nautical Twilight
Astronomical Twilight
Moon
Length of Visible Light
Length of Day
Tomorrow will be .
, % of the Moon is Illuminated

Today's Extremes

State Highs State Lows

Community

WunderPhotos

Upload Photos

1,802,652 photos uploaded!

WunderBlogs® & News

Nearby

Air Quality

  Air Quality AQ Index Pollutant
Not available.

Snow Depth

Station Depth Elevation

Earthquake Activity

City Distance Mag. Time & Date
Minimum magnitude displayed is 2.5.

Coastal Water Temperatures

Place Temperature

Nearby Weather Stations

Freezing Rain Advisory
Statement as of 8:39 PM CST on March 04, 2015

... Freezing Rain Advisory remains in effect from 3 am to 3 PM CST
Thursday...

* timing... from 3 am Thursday morning through 3 PM Thursday
afternoon.

* Location... areas along and north of a Livingston... to
Pelham... to Pell City... to Anniston line.

Precautionary/preparedness actions...

A Freezing Rain Advisory means that periods of freezing rain or
freezing drizzle will cause travel difficulties. Be prepared for
slippery roads. Slow down and use caution while driving. Be
prepared for an upgrade to a Winter Storm Warning if needed.